Time;durP1;ratioP1;P1;durP2;ratioP2;P2;SDS_P1;SDS_P2;PMS_P1;PMS_P2;Temp;Humidity;BMP_temperature;BMP_pressure;BME280_temperature;BME280_humidity;BME280_pressure;Samples;Min_cycle;Max_cycle;Signal;HPM_P1;HPM_P2
2023/01/28 00:00:52;;;;;;;8.35;6.07;;;20.50;36.30;;;;;;5052781;28;20049;-65
2023/01/28 00:03:19;;;;;;;8.75;6.03;;;20.50;36.30;;;;;;5051922;28;20085;-64
2023/01/28 00:05:47;;;;;;;8.35;6.13;;;20.40;36.20;;;;;;5052318;28;20055;-65
2023/01/28 00:08:14;;;;;;;9.10;5.82;;;20.50;36.30;;;;;;5052535;28;20486;-65
2023/01/28 00:10:42;;;;;;;8.93;5.82;;;20.40;36.20;;;;;;5052670;28;20041;-64
2023/01/28 00:13:13;;;;;;;7.60;5.30;;;20.40;36.20;;;;;;5052526;28;20071;-65
2023/01/28 00:15:41;;;;;;;8.23;5.60;;;20.40;36.30;;;;;;5053024;28;20439;-64
2023/01/28 00:18:08;;;;;;;8.13;5.40;;;20.40;36.30;;;;;;5052797;28;20045;-65
2023/01/28 00:20:35;;;;;;;8.90;5.53;;;20.40;36.30;;;;;;5051862;28;20133;-65
2023/01/28 00:23:02;;;;;;;10.00;6.40;;;20.40;36.30;;;;;;5052598;28;20057;-65
2023/01/28 00:25:30;;;;;;;8.57;5.80;;;20.40;36.30;;;;;;5052544;28;20374;-65
2023/01/28 00:27:57;;;;;;;8.77;5.88;;;20.40;36.30;;;;;;5052293;28;20053;-65
2023/01/28 00:30:24;;;;;;;9.50;5.75;;;20.40;36.30;;;;;;5052732;28;20138;-64
2023/01/28 00:32:54;;;;;;;8.45;5.93;;;20.40;36.30;;;;;;5052542;28;20505;-66
2023/01/28 00:35:21;;;;;;;8.93;5.82;;;20.40;36.30;;;;;;5052379;28;20072;-64
2023/01/28 00:37:48;;;;;;;8.05;5.53;;;20.40;36.30;;;;;;5052617;28;20045;-65
2023/01/28 00:40:15;;;;;;;9.52;6.00;;;20.40;36.30;;;;;;5052417;28;20053;-64
2023/01/28 00:42:42;;;;;;;8.73;5.63;;;20.40;36.20;;;;;;5052213;28;20049;-64
2023/01/28 00:45:09;;;;;;;10.15;6.25;;;20.40;36.20;;;;;;5053074;28;20048;-65
2023/01/28 00:47:37;;;;;;;8.80;5.97;;;20.30;36.20;;;;;;5055849;28;20051;-64
2023/01/28 00:50:04;;;;;;;9.10;6.15;;;20.40;36.20;;;;;;5056020;28;20060;-64
2023/01/28 00:52:31;;;;;;;10.25;6.30;;;20.40;36.30;;;;;;5056288;28;20049;-64
2023/01/28 00:54:59;;;;;;;9.60;6.43;;;20.40;36.20;;;;;;5054519;28;20140;-65
2023/01/28 00:57:26;;;;;;;10.15;6.00;;;20.30;36.10;;;;;;5054642;28;20048;-65
2023/01/28 00:59:53;;;;;;;9.05;5.72;;;20.30;36.10;;;;;;5055672;28;20041;-65
2023/01/28 01:02:20;;;;;;;8.40;5.13;;;20.30;36.20;;;;;;5053716;28;20053;-65
2023/01/28 01:05:00;;;;;;;9.15;5.40;;;20.30;36.20;;;;;;5054258;28;20515;-64
2023/01/28 01:07:40;;;;;;;10.07;5.80;;;20.30;36.20;;;;;;5055659;28;20055;-65
2023/01/28 01:10:10;;;;;;;8.30;5.82;;;20.30;36.20;;;;;;5055431;28;20060;-65
2023/01/28 01:12:38;;;;;;;7.85;5.63;;;20.40;36.80;;;;;;5055378;28;20049;-65
2023/01/28 01:15:09;;;;;;;7.90;5.78;;;20.30;36.20;;;;;;5055674;28;20400;-65
2023/01/28 01:17:38;;;;;;;9.32;6.57;;;20.40;36.20;;;;;;5054658;28;20053;-65
2023/01/28 01:20:08;;;;;;;9.70;6.25;;;20.40;36.10;;;;;;5055317;28;20135;-65
2023/01/28 01:22:36;;;;;;;9.82;6.15;;;20.40;36.10;;;;;;5055730;28;20408;-65
2023/01/28 01:25:05;;;;;;;9.07;5.85;;;20.40;36.10;;;;;;5054975;28;20132;-65
2023/01/28 01:27:34;;;;;;;8.55;6.20;;;20.30;36.00;;;;;;5053264;28;20053;-65
2023/01/28 01:30:01;;;;;;;10.82;6.47;;;20.40;36.10;;;;;;5055368;28;20071;-65
2023/01/28 01:32:33;;;;;;;8.52;5.38;;;20.30;36.00;;;;;;5054171;28;20473;-64
2023/01/28 01:35:01;;;;;;;8.35;5.60;;;20.30;36.00;;;;;;5054746;28;20040;-65
2023/01/28 01:37:28;;;;;;;9.13;6.15;;;20.30;36.00;;;;;;5054903;28;20485;-65
2023/01/28 01:39:56;;;;;;;8.20;5.85;;;20.30;36.00;;;;;;5054859;28;20052;-64
2023/01/28 01:42:27;;;;;;;7.93;6.00;;;20.30;36.00;;;;;;5055147;28;20050;-64
2023/01/28 01:45:06;;;;;;;7.93;5.57;;;20.30;36.10;;;;;;5055052;28;20061;-64
2023/01/28 01:47:56;;;;;;;7.47;5.25;;;20.30;36.10;;;;;;5054566;28;20489;-64
2023/01/28 01:50:32;;;;;;;7.50;5.35;;;20.30;36.10;;;;;;5054692;28;20048;-65
2023/01/28 01:53:08;;;;;;;8.38;5.78;;;20.30;36.10;;;;;;5055040;28;20045;-64
2023/01/28 01:55:39;;;;;;;7.10;5.53;;;20.30;36.10;;;;;;5054319;28;20564;-65
2023/01/28 01:58:10;;;;;;;7.93;5.60;;;20.30;36.10;;;;;;5054715;28;20045;-65
2023/01/28 02:00:39;;;;;;;9.38;5.82;;;20.30;36.10;;;;;;5054456;28;20133;-64
2023/01/28 02:03:06;;;;;;;8.90;5.88;;;20.30;36.10;;;;;;5053192;28;20410;-65
2023/01/28 02:05:34;;;;;;;8.13;5.85;;;20.30;36.10;;;;;;5054397;28;20052;-64
2023/01/28 02:11:01;;;;;;;9.23;5.47;;;20.20;36.10;;;;;;5054532;28;20448;-64
2023/01/28 02:13:33;;;;;;;9.20;5.70;;;20.20;36.10;;;;;;5052945;28;20551;-64
2023/01/28 02:16:02;;;;;;;7.07;4.90;;;20.20;36.10;;;;;;5054369;28;20409;-64
2023/01/28 02:18:30;;;;;;;7.65;5.35;;;20.30;36.20;;;;;;5054012;28;20049;-65
2023/01/28 02:21:29;;;;;;;7.63;5.00;;;20.20;36.60;;;;;;5054435;28;20045;-65
2023/01/28 02:24:25;;;;;;;7.65;5.78;;;20.20;36.10;;;;;;5054016;28;20052;-64
2023/01/28 02:27:32;;;;;;;7.95;5.30;;;20.20;36.10;;;;;;5053321;28;20087;-64
2023/01/28 02:30:12;;;;;;;9.32;5.57;;;20.20;36.10;;;;;;5052794;28;20051;-64
2023/01/28 02:32:50;;;;;;;7.47;5.82;;;20.20;36.10;;;;;;5054534;28;20056;-64
2023/01/28 02:35:30;;;;;;;6.60;5.18;;;20.20;36.10;;;;;;5054138;28;20045;-65
2023/01/28 02:38:15;;;;;;;8.88;5.60;;;20.20;36.10;;;;;;5052494;28;20512;-64
2023/01/28 02:41:04;;;;;;;7.82;5.53;;;20.20;36.10;;;;;;5053718;28;20409;-64
2023/01/28 02:43:40;;;;;;;7.85;5.90;;;20.20;36.10;;;;;;5053954;28;20067;-64
2023/01/28 02:49:47;;;;;;;7.50;5.07;;;20.20;36.10;;;;;;5052559;28;20059;-64
2023/01/28 02:55:52;;;;;;;9.52;5.90;;;20.20;36.10;;;;;;5053413;28;20485;-64
2023/01/28 02:58:46;;;;;;;10.50;6.55;;;20.20;36.10;;;;;;5053600;28;20480;-65
2023/01/28 03:01:31;;;;;;;8.07;5.45;;;20.20;36.70;;;;;;5052909;28;20051;-64
2023/01/28 03:04:06;;;;;;;8.13;5.70;;;20.20;36.10;;;;;;5054079;28;20381;-64
2023/01/28 03:06:39;;;;;;;8.77;6.03;;;20.20;36.10;;;;;;5053076;28;20055;-64
2023/01/28 03:09:22;;;;;;;6.80;5.20;;;20.20;36.10;;;;;;5053253;28;20087;-64
2023/01/28 03:38:52;;;;;;;9.00;6.05;;;20.20;36.00;;;;;;5052737;28;20489;-64
2023/01/28 03:41:25;;;;;;;8.90;6.03;;;20.20;36.00;;;;;;5053330;28;20045;-64
2023/01/28 03:43:52;;;;;;;7.18;5.18;;;20.20;35.90;;;;;;5052604;28;20092;-64
2023/01/28 03:46:19;;;;;;;8.57;5.45;;;20.20;35.90;;;;;;5052837;28;20051;-64
2023/01/28 03:48:46;;;;;;;8.02;5.88;;;20.20;35.90;;;;;;5052667;28;20057;-65
2023/01/28 03:51:14;;;;;;;8.32;5.80;;;20.20;35.90;;;;;;5053182;28;20424;-64
2023/01/28 03:53:41;;;;;;;9.63;6.03;;;20.20;35.90;;;;;;5053049;28;20128;-65
2023/01/28 03:56:08;;;;;;;6.57;5.30;;;20.20;35.90;;;;;;5053166;28;20060;-65
2023/01/28 03:58:51;;;;;;;7.65;5.25;;;20.20;35.90;;;;;;5051834;28;20404;-65
2023/01/28 04:01:19;;;;;;;9.05;6.35;;;20.20;35.90;;;;;;5052687;28;20511;-65
2023/01/28 04:03:47;;;;;;;9.27;5.60;;;20.20;35.90;;;;;;5052764;28;20049;-65
2023/01/28 04:06:14;;;;;;;8.98;5.47;;;20.10;35.90;;;;;;5052649;28;20055;-64
2023/01/28 04:08:44;;;;;;;7.43;5.85;;;20.10;35.90;;;;;;5052843;28;20048;-65
2023/01/28 04:11:14;;;;;;;9.05;5.80;;;20.10;35.90;;;;;;5052285;28;20045;-65
2023/01/28 04:13:42;;;;;;;7.28;5.10;;;20.10;35.90;;;;;;5052207;28;20048;-64
2023/01/28 04:16:10;;;;;;;8.02;5.93;;;20.10;35.90;;;;;;5052661;28;20053;-65
2023/01/28 04:18:37;;;;;;;7.90;5.75;;;20.10;35.90;;;;;;5053612;28;20041;-65
2023/01/28 04:21:04;;;;;;;8.13;5.70;;;20.10;35.90;;;;;;5056432;28;20055;-65
2023/01/28 04:23:32;;;;;;;8.15;6.05;;;20.10;35.90;;;;;;5056121;28;20053;-65
2023/01/28 04:25:59;;;;;;;8.23;5.38;;;20.10;35.90;;;;;;5056587;28;20052;-65
2023/01/28 04:28:26;;;;;;;6.78;4.95;;;20.10;35.90;;;;;;5056235;28;20053;-64
2023/01/28 04:30:53;;;;;;;8.02;5.45;;;20.10;35.90;;;;;;5056478;28;20052;-65
2023/01/28 04:33:20;;;;;;;9.80;6.78;;;20.10;35.90;;;;;;5056133;28;20140;-65
2023/01/28 04:35:47;;;;;;;8.75;5.75;;;20.10;36.40;;;;;;5056405;28;20504;-64
2023/01/28 04:38:14;;;;;;;9.38;6.00;;;20.10;35.80;;;;;;5056551;28;20072;-65
2023/01/28 04:40:41;;;;;;;8.98;6.05;;;20.10;35.80;;;;;;5055702;28;20493;-65
2023/01/28 04:43:08;;;;;;;7.72;5.93;;;20.10;35.80;;;;;;5055867;28;20075;-65
2023/01/28 04:45:35;;;;;;;9.05;5.60;;;20.10;35.80;;;;;;5055982;28;20051;-65
2023/01/28 04:48:03;;;;;;;9.18;5.78;;;20.10;36.40;;;;;;5055773;28;20052;-64
2023/01/28 04:50:30;;;;;;;7.88;5.38;;;20.10;35.80;;;;;;5054831;28;20049;-64
2023/01/28 04:52:57;;;;;;;8.98;6.00;;;20.10;35.80;;;;;;5056230;28;20061;-64
2023/01/28 04:55:24;;;;;;;7.45;5.43;;;20.10;35.80;;;;;;5054493;28;20049;-64
2023/01/28 04:57:51;;;;;;;8.18;5.35;;;20.10;35.80;;;;;;5056005;28;20051;-65
2023/01/28 05:00:18;;;;;;;8.68;5.47;;;20.00;35.80;;;;;;5055681;28;20053;-65
2023/01/28 05:02:46;;;;;;;8.35;5.60;;;20.00;35.70;;;;;;5055700;28;20045;-65
2023/01/28 05:05:13;;;;;;;8.32;5.70;;;20.00;35.80;;;;;;5055477;28;20057;-64
2023/01/28 05:07:41;;;;;;;8.85;5.70;;;20.10;35.80;;;;;;5055727;28;20386;-65
2023/01/28 05:10:08;;;;;;;8.82;6.45;;;20.10;35.80;;;;;;5055647;28;20049;-64
2023/01/28 05:12:35;;;;;;;9.10;5.93;;;20.00;35.70;;;;;;5055597;28;20486;-64
2023/01/28 05:15:03;;;;;;;7.50;5.53;;;20.00;35.70;;;;;;5055602;28;20049;-65
2023/01/28 05:17:30;;;;;;;8.15;5.97;;;20.00;35.70;;;;;;5055628;28;20460;-64
2023/01/28 05:19:57;;;;;;;10.63;6.28;;;20.00;35.70;;;;;;5055207;28;20052;-65
2023/01/28 05:22:24;;;;;;;7.78;5.30;;;20.10;35.70;;;;;;5054134;28;20044;-64
2023/01/28 05:24:51;;;;;;;7.28;5.28;;;20.00;35.70;;;;;;5055447;28;20055;-65
2023/01/28 05:27:18;;;;;;;9.90;6.28;;;20.00;35.60;;;;;;5055598;28;20401;-64
2023/01/28 05:29:46;;;;;;;9.48;6.22;;;20.00;35.70;;;;;;5054383;28;20052;-65
2023/01/28 05:32:13;;;;;;;9.75;5.97;;;20.00;35.70;;;;;;5055064;28;20045;-64
2023/01/28 05:34:40;;;;;;;11.13;6.13;;;20.00;35.70;;;;;;5055421;28;20089;-66
2023/01/28 05:37:07;;;;;;;9.20;6.35;;;20.00;35.60;;;;;;5055242;28;20051;-64
2023/01/28 05:39:34;;;;;;;9.27;6.13;;;20.00;35.40;;;;;;5055183;28;20053;-64
2023/01/28 05:42:01;;;;;;;9.93;7.22;;;20.00;35.30;;;;;;5054956;28;20045;-64
2023/01/28 05:44:28;;;;;;;11.45;6.57;;;19.90;35.20;;;;;;5054102;28;20096;-64
2023/01/28 05:46:55;;;;;;;9.32;6.57;;;20.00;35.20;;;;;;5054852;28;20041;-64
2023/01/28 05:49:22;;;;;;;10.15;6.85;;;19.90;35.20;;;;;;5054824;28;20045;-64
2023/01/28 05:51:49;;;;;;;10.55;6.45;;;19.90;35.20;;;;;;5054707;28;20048;-64
2023/01/28 05:54:16;;;;;;;8.57;6.28;;;19.80;35.20;;;;;;5054753;28;20420;-64
2023/01/28 05:56:44;;;;;;;9.98;6.07;;;19.90;35.30;;;;;;5054778;28;20060;-65
2023/01/28 05:59:12;;;;;;;9.10;6.22;;;19.90;35.40;;;;;;5054348;28;20489;-64
2023/01/28 06:01:39;;;;;;;9.07;6.20;;;19.90;35.40;;;;;;5054730;28;20059;-64
2023/01/28 06:04:06;;;;;;;8.02;6.03;;;19.90;35.40;;;;;;5055063;28;20067;-64
2023/01/28 06:06:33;;;;;;;10.13;6.55;;;19.90;35.30;;;;;;5053455;28;20053;-64
2023/01/28 06:09:00;;;;;;;9.50;6.22;;;19.90;35.30;;;;;;5054216;28;20051;-64
2023/01/28 06:11:27;;;;;;;10.35;6.97;;;19.90;35.20;;;;;;5053437;28;20060;-64
2023/01/28 06:13:54;;;;;;;10.50;7.00;;;20.00;35.20;;;;;;5054201;28;20489;-64
2023/01/28 06:16:21;;;;;;;11.82;6.70;;;20.00;35.20;;;;;;5054348;28;20045;-64
2023/01/28 06:18:48;;;;;;;9.73;6.45;;;20.00;35.10;;;;;;5054621;28;20056;-65
2023/01/28 06:21:15;;;;;;;10.70;6.88;;;20.00;35.10;;;;;;5054192;28;20485;-64
2023/01/28 06:23:43;;;;;;;9.57;6.18;;;20.00;35.00;;;;;;5054416;28;20048;-64
2023/01/28 06:26:10;;;;;;;9.65;6.25;;;20.00;35.00;;;;;;5054164;28;20045;-64
2023/01/28 06:28:37;;;;;;;10.57;7.40;;;20.10;35.00;;;;;;5053951;28;20049;-64
2023/01/28 06:31:04;;;;;;;10.02;7.07;;;20.10;35.00;;;;;;5054164;28;20052;-64
2023/01/28 06:33:31;;;;;;;11.30;6.78;;;20.10;34.90;;;;;;5053986;28;20079;-64
2023/01/28 06:36:01;;;;;;;9.68;6.75;;;20.10;34.90;;;;;;5054099;28;20045;-65
2023/01/28 06:38:28;;;;;;;10.27;7.00;;;20.10;34.80;;;;;;5053660;28;20051;-64
2023/01/28 06:40:55;;;;;;;8.50;6.40;;;20.20;34.90;;;;;;5053799;28;20057;-65
2023/01/28 06:43:26;;;;;;;10.52;6.60;;;20.20;35.30;;;;;;5052704;28;20048;-64
2023/01/28 06:45:54;;;;;;;10.90;7.35;;;20.20;34.70;;;;;;5053714;28;20579;-65
2023/01/28 06:48:21;;;;;;;9.93;6.97;;;20.20;34.60;;;;;;5053624;28;20045;-64
2023/01/28 06:50:48;;;;;;;10.05;6.55;;;20.20;34.60;;;;;;5053753;28;20049;-64
2023/01/28 06:53:17;;;;;;;12.40;6.80;;;20.30;34.60;;;;;;5053715;28;20045;-64
2023/01/28 06:55:44;;;;;;;11.30;6.95;;;20.30;34.50;;;;;;5053398;28;20063;-64
2023/01/28 06:58:11;;;;;;;11.68;7.13;;;20.30;34.40;;;;;;5053467;28;20045;-64
2023/01/28 07:00:38;;;;;;;11.30;7.38;;;20.30;34.40;;;;;;5053682;28;20049;-64
2023/01/28 07:03:06;;;;;;;11.18;7.35;;;20.30;34.30;;;;;;5053800;28;20045;-64
2023/01/28 07:05:33;;;;;;;10.77;7.10;;;20.30;34.30;;;;;;5053276;28;20055;-64
2023/01/28 07:08:01;;;;;;;11.38;6.95;;;20.30;34.30;;;;;;5053958;28;20095;-64
2023/01/28 07:10:29;;;;;;;10.18;7.30;;;20.40;34.20;;;;;;5053626;28;20082;-64
2023/01/28 07:12:56;;;;;;;11.32;7.47;;;20.40;34.20;;;;;;5053433;28;20516;-65
2023/01/28 07:15:23;;;;;;;11.50;7.40;;;20.40;34.20;;;;;;5053458;28;20041;-64
2023/01/28 07:17:50;;;;;;;11.18;7.57;;;20.40;34.10;;;;;;5053428;28;20057;-64
2023/01/28 07:20:17;;;;;;;10.65;6.93;;;20.40;34.00;;;;;;5053371;28;20060;-65
2023/01/28 07:22:44;;;;;;;11.15;7.68;;;20.50;34.00;;;;;;5053814;28;20098;-65
2023/01/28 07:25:13;;;;;;;10.77;7.40;;;20.50;34.00;;;;;;5051811;28;20055;-65
2023/01/28 07:27:52;;;;;;;10.95;7.28;;;20.50;33.90;;;;;;5053025;28;20076;-65
2023/01/28 07:30:20;;;;;;;10.15;7.53;;;20.50;33.90;;;;;;5053421;28;20048;-64
2023/01/28 07:32:53;;;;;;;10.63;7.72;;;20.50;33.80;;;;;;5053267;28;20052;-64
2023/01/28 07:35:20;;;;;;;11.98;8.32;;;20.50;33.80;;;;;;5052986;28;20045;-64
2023/01/28 07:37:52;;;;;;;11.10;7.60;;;20.50;33.70;;;;;;5052067;28;20048;-64
2023/01/28 07:40:20;;;;;;;13.73;8.05;;;20.60;33.70;;;;;;5051991;28;20135;-64
2023/01/28 07:42:48;;;;;;;13.60;7.97;;;20.60;33.60;;;;;;5053045;28;20049;-64
2023/01/28 07:45:15;;;;;;;10.35;7.57;;;20.60;33.60;;;;;;5052834;28;20055;-64
2023/01/28 07:47:42;;;;;;;12.38;8.32;;;20.70;33.70;;;;;;5053147;28;20052;-64
2023/01/28 07:50:10;;;;;;;12.30;8.27;;;20.70;33.70;;;;;;5052956;28;20053;-64
2023/01/28 07:52:43;;;;;;;14.02;8.90;;;20.70;33.60;;;;;;5052936;28;20152;-64
2023/01/28 07:55:14;;;;;;;11.32;7.90;;;20.70;33.60;;;;;;5056923;28;20412;-64
2023/01/28 07:57:56;;;;;;;10.60;7.72;;;20.70;33.50;;;;;;5057111;28;20115;-64
2023/01/28 08:00:25;;;;;;;12.77;8.32;;;20.70;33.50;;;;;;5056304;28;20083;-64
2023/01/28 08:02:57;;;;;;;12.85;8.95;;;20.70;33.40;;;;;;5056788;28;20048;-64
2023/01/28 08:05:28;;;;;;;14.80;8.93;;;20.70;33.40;;;;;;5056670;28;20135;-64
2023/01/28 08:07:56;;;;;;;15.20;9.05;;;20.80;33.40;;;;;;5056018;28;20521;-64
2023/01/28 08:10:24;;;;;;;13.77;8.05;;;20.80;33.30;;;;;;5056401;28;20051;-64
2023/01/28 08:12:57;;;;;;;12.18;8.52;;;20.80;33.30;;;;;;5056825;28;20485;-64
2023/01/28 08:15:25;;;;;;;14.30;9.13;;;20.80;33.20;;;;;;5056441;28;20131;-64
2023/01/28 08:17:56;;;;;;;13.55;8.77;;;20.80;33.10;;;;;;5055616;28;20102;-64
2023/01/28 08:20:25;;;;;;;11.63;7.90;;;20.90;33.10;;;;;;5056432;28;20059;-64
2023/01/28 08:22:53;;;;;;;14.25;9.00;;;20.90;33.00;;;;;;5056463;28;20041;-64
2023/01/28 08:25:20;;;;;;;10.40;7.65;;;20.90;32.90;;;;;;5056372;28;20078;-64
2023/01/28 08:27:47;;;;;;;13.95;8.85;;;20.90;32.90;;;;;;5056604;28;20408;-64
2023/01/28 08:30:14;;;;;;;14.90;9.35;;;21.00;32.90;;;;;;5056081;28;20489;-65
2023/01/28 08:32:42;;;;;;;13.38;9.00;;;21.00;32.90;;;;;;5056067;28;20052;-64
2023/01/28 08:35:09;;;;;;;15.32;9.07;;;20.90;32.80;;;;;;5056069;28;20492;-65
2023/01/28 08:37:36;;;;;;;13.75;8.25;;;21.00;32.80;;;;;;5056500;28;20049;-64
2023/01/28 08:40:04;;;;;;;12.68;8.95;;;21.00;32.80;;;;;;5055149;28;20049;-64
2023/01/28 08:42:31;;;;;;;12.13;8.88;;;21.00;32.70;;;;;;5056327;28;20434;-64
2023/01/28 08:44:58;;;;;;;13.65;8.63;;;21.00;32.70;;;;;;5055791;28;20045;-64
2023/01/28 08:47:25;;;;;;;13.52;9.38;;;21.00;32.70;;;;;;5056356;28;20055;-64
2023/01/28 08:49:52;;;;;;;12.43;8.45;;;21.10;32.70;;;;;;5055972;28;20053;-64
2023/01/28 08:52:19;;;;;;;13.38;9.35;;;21.10;32.70;;;;;;5055921;28;20048;-65
2023/01/28 08:54:46;;;;;;;13.23;9.18;;;21.10;32.60;;;;;;5056264;28;20045;-64
2023/01/28 08:57:13;;;;;;;11.88;8.13;;;21.10;32.60;;;;;;5056034;28;20407;-65
2023/01/28 08:59:43;;;;;;;13.75;9.68;;;21.10;32.60;;;;;;5055841;28;20048;-64
2023/01/28 09:02:14;;;;;;;17.10;9.82;;;21.10;32.60;;;;;;5056078;28;20069;-64
2023/01/28 09:04:56;;;;;;;13.98;9.15;;;21.10;32.60;;;;;;5054392;28;20056;-64
2023/01/28 09:07:24;;;;;;;14.13;8.85;;;21.10;32.50;;;;;;5055634;28;20049;-64
2023/01/28 09:09:51;;;;;;;13.63;8.73;;;21.10;32.50;;;;;;5054502;28;20071;-64
2023/01/28 09:12:18;;;;;;;13.32;9.00;;;21.20;32.50;;;;;;5055504;28;20446;-65
2023/01/28 09:14:45;;;;;;;13.45;9.18;;;21.20;32.50;;;;;;5054243;28;20059;-65
2023/01/28 09:17:12;;;;;;;13.07;8.95;;;21.10;32.40;;;;;;5055446;28;20057;-65
2023/01/28 09:19:39;;;;;;;14.63;9.80;;;21.20;32.40;;;;;;5055669;28;20045;-65
2023/01/28 09:22:06;;;;;;;14.15;9.75;;;21.10;32.30;;;;;;5055629;28;20420;-64
2023/01/28 09:24:33;;;;;;;14.25;9.93;;;21.20;32.30;;;;;;5055270;28;20041;-65
2023/01/28 09:27:02;;;;;;;15.25;9.98;;;21.20;32.30;;;;;;5055503;28;20049;-64
2023/01/28 09:29:29;;;;;;;14.38;9.90;;;21.20;32.30;;;;;;5055413;28;20397;-65
2023/01/28 09:31:56;;;;;;;13.07;9.85;;;21.30;32.30;;;;;;5055116;28;20051;-64
2023/01/28 09:34:23;;;;;;;16.02;10.20;;;21.30;32.30;;;;;;5055270;28;20057;-65
2023/01/28 09:36:50;;;;;;;15.23;9.65;;;21.30;32.20;;;;;;5055144;28;20427;-64
2023/01/28 09:39:17;;;;;;;16.45;9.48;;;21.30;32.20;;;;;;5054780;28;20049;-64
2023/01/28 09:42:23;;;;;;;14.85;9.40;;;21.30;32.10;;;;;;5055319;28;20049;-64
2023/01/28 09:45:17;;;;;;;12.73;8.98;;;21.30;32.10;;;;;;5054265;28;20145;-64
2023/01/28 09:47:58;;;;;;;16.35;9.80;;;21.30;32.10;;;;;;5055178;28;20041;-64
2023/01/28 09:50:36;;;;;;;13.15;8.52;;;21.30;32.00;;;;;;5054918;28;20485;-64
2023/01/28 09:53:17;;;;;;;13.93;9.50;;;21.40;32.00;;;;;;5054745;28;20477;-64
2023/01/28 09:56:03;;;;;;;14.27;9.13;;;21.40;32.00;;;;;;5035760;28;20049;-64
2023/01/28 09:58:31;;;;;;;15.00;9.48;;;21.40;31.90;;;;;;5054662;28;20460;-65
2023/01/28 10:01:38;;;;;;;13.82;9.15;;;21.40;31.90;;;;;;5053295;28;20052;-64
2023/01/28 10:04:28;;;;;;;15.52;10.07;;;21.40;31.80;;;;;;5053771;28;20045;-64
2023/01/28 10:07:12;;;;;;;13.75;9.20;;;21.50;31.80;;;;;;5054484;28;20049;-64
2023/01/28 10:10:09;;;;;;;15.70;9.73;;;21.50;31.80;;;;;;5054558;28;20147;-64
2023/01/28 10:13:04;;;;;;;16.00;9.65;;;21.50;31.70;;;;;;5054370;28;20489;-64
2023/01/28 10:16:08;;;;;;;16.08;10.32;;;21.50;31.60;;;;;;5054469;28;20052;-64
2023/01/28 10:18:45;;;;;;;13.57;9.25;;;21.60;31.70;;;;;;5054243;28;20052;-64
2023/01/28 10:21:35;;;;;;;15.43;10.27;;;21.60;31.60;;;;;;5054353;28;20469;-64
2023/01/28 10:24:19;;;;;;;13.75;8.70;;;21.60;31.60;;;;;;5052883;28;20076;-64
2023/01/28 10:26:46;;;;;;;13.93;9.20;;;21.60;31.60;;;;;;5054112;28;20103;-65
2023/01/28 10:29:20;;;;;;;18.27;10.18;;;21.60;31.50;;;;;;5053909;28;20041;-64
2023/01/28 10:32:04;;;;;;;16.65;11.30;;;21.60;31.50;;;;;;5053997;28;20551;-64
2023/01/28 10:34:31;;;;;;;15.20;10.10;;;21.60;31.50;;;;;;5052775;28;20041;-64
2023/01/28 10:36:59;;;;;;;15.90;9.93;;;21.60;31.40;;;;;;5054192;28;20045;-64
2023/01/28 10:39:27;;;;;;;14.27;9.88;;;21.70;31.40;;;;;;5053991;28;20071;-64
2023/01/28 10:41:54;;;;;;;14.27;9.57;;;21.60;31.30;;;;;;5052995;28;20049;-64
2023/01/28 10:44:36;;;;;;;15.23;9.70;;;21.70;31.40;;;;;;5053918;28;20461;-64
2023/01/28 10:47:13;;;;;;;15.32;9.52;;;21.70;31.30;;;;;;5052898;28;20385;-65
2023/01/28 10:49:46;;;;;;;13.50;9.73;;;21.70;31.30;;;;;;5053540;28;20049;-65
2023/01/28 10:52:14;;;;;;;14.05;9.70;;;21.70;31.30;;;;;;5053563;28;20045;-64
2023/01/28 10:54:41;;;;;;;13.05;9.20;;;21.70;31.30;;;;;;5053923;28;20407;-65
2023/01/28 10:57:18;;;;;;;15.27;9.05;;;21.70;31.20;;;;;;5053861;28;20481;-65
2023/01/28 10:59:48;;;;;;;14.13;9.65;;;21.70;31.20;;;;;;5053519;28;20044;-64
2023/01/28 11:02:31;;;;;;;13.20;9.13;;;21.70;31.20;;;;;;5053887;28;20048;-65
2023/01/28 11:05:16;;;;;;;14.35;9.60;;;21.70;31.20;;;;;;5053309;28;20045;-64
2023/01/28 11:07:43;;;;;;;14.77;9.38;;;21.70;31.20;;;;;;5053378;28;20052;-65
2023/01/28 11:10:35;;;;;;;16.23;9.68;;;21.70;31.20;;;;;;5053280;28;20045;-64
2023/01/28 11:13:04;;;;;;;13.45;9.25;;;21.70;31.20;;;;;;5053213;28;20045;-64
2023/01/28 11:15:32;;;;;;;15.00;9.57;;;21.70;31.20;;;;;;5053364;28;20049;-64
2023/01/28 11:18:05;;;;;;;14.32;9.88;;;21.70;31.20;;;;;;5053261;28;20055;-65
2023/01/28 11:20:39;;;;;;;14.18;9.60;;;21.70;31.20;;;;;;5053302;28;20053;-64
2023/01/28 11:23:16;;;;;;;15.43;9.90;;;21.70;31.20;;;;;;5053319;28;20044;-64
2023/01/28 11:25:43;;;;;;;15.48;9.23;;;21.70;31.20;;;;;;5053343;28;20107;-64
2023/01/28 11:28:18;;;;;;;14.60;9.98;;;21.70;31.10;;;;;;5052631;28;20040;-64
2023/01/28 11:30:55;;;;;;;14.60;9.07;;;21.70;31.10;;;;;;5053217;28;20084;-65
2023/01/28 11:33:38;;;;;;;14.25;9.57;;;21.70;31.20;;;;;;5053056;28;20084;-65
2023/01/28 11:36:14;;;;;;;13.93;9.50;;;21.70;31.10;;;;;;5053027;28;20049;-65
2023/01/28 11:38:58;;;;;;;13.77;9.52;;;21.70;31.10;;;;;;5053236;28;20124;-64
2023/01/28 11:41:31;;;;;;;15.90;10.65;;;21.70;31.10;;;;;;5052878;28;20053;-64
2023/01/28 11:44:16;;;;;;;14.57;9.95;;;21.70;31.10;;;;;;5052926;28;20045;-64
2023/01/28 11:47:13;;;;;;;13.70;9.02;;;21.70;31.10;;;;;;5053278;28;20053;-65
2023/01/28 11:50:06;;;;;;;15.05;9.18;;;21.70;31.10;;;;;;5052368;28;20045;-64
2023/01/28 11:53:13;;;;;;;12.60;9.55;;;21.70;31.10;;;;;;5052874;28;20048;-64
2023/01/28 11:56:22;;;;;;;14.10;9.52;;;21.70;31.10;;;;;;5053003;28;20071;-65
2023/01/28 11:59:10;;;;;;;14.68;9.82;;;21.70;31.00;;;;;;5052737;28;20045;-65
2023/01/28 12:02:14;;;;;;;14.50;9.75;;;21.70;31.00;;;;;;5052724;28;20060;-65
2023/01/28 12:05:06;;;;;;;13.73;9.80;;;21.70;31.00;;;;;;5052721;28;20049;-64
2023/01/28 12:08:00;;;;;;;13.15;8.80;;;21.70;30.90;;;;;;5052028;28;20132;-64
2023/01/28 12:10:43;;;;;;;15.13;9.23;;;21.70;30.90;;;;;;5052747;28;20413;-64
2023/01/28 12:13:32;;;;;;;13.85;9.48;;;21.70;30.90;;;;;;5052683;28;20055;-64
2023/01/28 12:16:34;;;;;;;16.63;9.85;;;21.70;30.90;;;;;;5052633;28;20055;-65
2023/01/28 12:19:15;;;;;;;15.90;10.15;;;21.80;30.90;;;;;;5052765;28;20055;-64
2023/01/28 12:22:01;;;;;;;14.55;9.85;;;21.80;30.80;;;;;;5052934;28;20053;-64
2023/01/28 12:24:54;;;;;;;15.63;9.90;;;21.80;30.80;;;;;;5052571;28;20041;-64
2023/01/28 12:27:44;;;;;;;15.43;10.57;;;21.80;30.70;;;;;;5038270;28;20443;-65
2023/01/28 12:30:26;;;;;;;14.60;9.52;;;21.80;30.70;;;;;;5052604;28;20136;-65
2023/01/28 12:33:27;;;;;;;15.43;10.35;;;21.90;30.70;;;;;;5052887;28;20049;-65
2023/01/28 12:36:24;;;;;;;13.82;9.70;;;21.90;30.70;;;;;;5052821;28;20083;-65
2023/01/28 12:39:15;;;;;;;15.88;9.52;;;21.90;30.70;;;;;;5051601;28;20052;-65
2023/01/28 12:41:52;;;;;;;14.93;9.55;;;21.90;30.60;;;;;;5056115;28;20477;-64
2023/01/28 12:44:27;;;;;;;14.30;9.73;;;21.90;30.60;;;;;;5055930;28;20047;-64
2023/01/28 12:46:59;;;;;;;15.40;10.73;;;22.00;30.60;;;;;;5056037;28;20052;-65
2023/01/28 12:49:34;;;;;;;15.68;10.32;;;22.00;30.50;;;;;;5056307;28;20041;-64
2023/01/28 12:52:14;;;;;;;18.02;10.35;;;22.00;30.50;;;;;;5056268;28;20048;-64
2023/01/28 12:55:02;;;;;;;15.25;10.02;;;22.00;30.50;;;;;;5055973;28;20493;-64
2023/01/28 12:57:31;;;;;;;12.65;8.95;;;22.00;30.50;;;;;;5056296;28;20086;-64
2023/01/28 13:00:33;;;;;;;14.75;10.15;;;22.00;30.50;;;;;;5054571;28;20055;-65
2023/01/28 13:03:20;;;;;;;14.65;9.57;;;22.00;30.40;;;;;;5055549;28;20045;-64
2023/01/28 13:05:54;;;;;;;15.35;9.93;;;22.00;30.40;;;;;;5055649;28;20478;-64
2023/01/28 13:08:27;;;;;;;14.75;9.68;;;22.00;30.40;;;;;;5055874;28;20048;-64
2023/01/28 13:10:57;;;;;;;15.60;10.52;;;22.00;30.30;;;;;;5055758;28;20049;-64
2023/01/28 13:13:43;;;;;;;15.63;10.20;;;22.10;30.40;;;;;;5054560;28;20056;-64
2023/01/28 13:16:12;;;;;;;15.15;9.85;;;22.10;30.40;;;;;;5055985;28;20110;-65
2023/01/28 13:18:44;;;;;;;14.82;10.20;;;22.10;30.40;;;;;;5055417;28;20045;-64
2023/01/28 13:21:29;;;;;;;14.52;9.63;;;22.10;30.30;;;;;;5055591;28;20064;-65
2023/01/28 13:24:22;;;;;;;14.20;10.07;;;22.10;30.30;;;;;;5055627;28;20041;-64
2023/01/28 13:26:52;;;;;;;14.43;10.00;;;22.10;30.30;;;;;;5054423;28;20064;-64
2023/01/28 13:29:30;;;;;;;16.73;10.57;;;22.10;30.30;;;;;;5055467;28;20408;-64
2023/01/28 13:31:59;;;;;;;14.25;9.73;;;22.10;30.30;;;;;;5054971;28;20048;-65
2023/01/28 13:34:45;;;;;;;15.90;10.85;;;22.10;30.30;;;;;;5055095;28;20552;-64
2023/01/28 13:37:42;;;;;;;15.40;9.68;;;22.10;30.20;;;;;;5055451;28;20056;-64
2023/01/28 13:40:26;;;;;;;14.45;9.48;;;22.10;30.30;;;;;;5054234;28;20040;-64
2023/01/28 13:43:32;;;;;;;14.02;9.60;;;22.10;30.30;;;;;;5055138;28;20059;-64
2023/01/28 13:46:03;;;;;;;13.57;9.25;;;22.10;30.20;;;;;;5054596;28;20033;-65
2023/01/28 13:48:49;;;;;;;15.75;10.48;;;22.00;30.20;;;;;;5055230;28;20095;-64